sensor_id;sensor_type;location;lat;lon;timestamp;P1;durP1;ratioP1;P2;durP2;ratioP2
69943;SDS011;57257;48.408;-4.498;2023-02-05T00:02:06;10.50;;;10.50;;
69943;SDS011;57257;48.408;-4.498;2023-02-05T00:04:33;10.25;;;7.00;;
69943;SDS011;57257;48.408;-4.498;2023-02-05T00:06:59;13.00;;;9.25;;
69943;SDS011;57257;48.408;-4.498;2023-02-05T00:09:25;10.00;;;10.00;;
69943;SDS011;57257;48.408;-4.498;2023-02-05T00:11:52;11.00;;;11.00;;
69943;SDS011;57257;48.408;-4.498;2023-02-05T00:14:21;7.00;;;3.75;;
69943;SDS011;57257;48.408;-4.498;2023-02-05T00:16:47;12.25;;;8.50;;
69943;SDS011;57257;48.408;-4.498;2023-02-05T00:19:12;8.00;;;6.75;;
69943;SDS011;57257;48.408;-4.498;2023-02-05T00:21:37;10.50;;;9.00;;
69943;SDS011;57257;48.408;-4.498;2023-02-05T00:24:03;7.50;;;6.00;;
69943;SDS011;57257;48.408;-4.498;2023-02-05T00:26:29;9.75;;;9.25;;
69943;SDS011;57257;48.408;-4.498;2023-02-05T00:28:55;8.00;;;8.00;;
69943;SDS011;57257;48.408;-4.498;2023-02-05T00:31:21;11.75;;;7.00;;
69943;SDS011;57257;48.408;-4.498;2023-02-05T00:33:47;12.25;;;9.50;;
69943;SDS011;57257;48.408;-4.498;2023-02-05T00:36:14;10.00;;;8.50;;
69943;SDS011;57257;48.408;-4.498;2023-02-05T00:38:40;11.50;;;9.00;;
69943;SDS011;57257;48.408;-4.498;2023-02-05T00:41:07;9.75;;;7.50;;
69943;SDS011;57257;48.408;-4.498;2023-02-05T00:43:32;10.25;;;9.75;;
69943;SDS011;57257;48.408;-4.498;2023-02-05T00:45:58;10.75;;;9.25;;
69943;SDS011;57257;48.408;-4.498;2023-02-05T00:48:23;9.00;;;9.00;;
69943;SDS011;57257;48.408;-4.498;2023-02-05T00:50:49;13.25;;;10.00;;
69943;SDS011;57257;48.408;-4.498;2023-02-05T00:53:15;11.75;;;11.00;;
69943;SDS011;57257;48.408;-4.498;2023-02-05T00:55:41;11.75;;;11.00;;
69943;SDS011;57257;48.408;-4.498;2023-02-05T00:58:07;14.00;;;12.50;;
69943;SDS011;57257;48.408;-4.498;2023-02-05T01:00:32;13.00;;;12.00;;
69943;SDS011;57257;48.408;-4.498;2023-02-05T01:02:58;11.50;;;9.75;;
69943;SDS011;57257;48.408;-4.498;2023-02-05T01:05:24;13.00;;;9.75;;
69943;SDS011;57257;48.408;-4.498;2023-02-05T01:07:49;11.50;;;8.50;;
69943;SDS011;57257;48.408;-4.498;2023-02-05T01:10:15;10.25;;;8.75;;
69943;SDS011;57257;48.408;-4.498;2023-02-05T01:12:40;15.25;;;9.00;;
69943;SDS011;57257;48.408;-4.498;2023-02-05T01:15:06;9.00;;;8.00;;
69943;SDS011;57257;48.408;-4.498;2023-02-05T01:17:33;9.25;;;8.50;;
69943;SDS011;57257;48.408;-4.498;2023-02-05T01:19:58;7.50;;;7.00;;
69943;SDS011;57257;48.408;-4.498;2023-02-05T01:22:24;6.50;;;5.75;;
69943;SDS011;57257;48.408;-4.498;2023-02-05T01:24:49;9.50;;;6.25;;
69943;SDS011;57257;48.408;-4.498;2023-02-05T01:27:15;6.75;;;6.75;;
69943;SDS011;57257;48.408;-4.498;2023-02-05T01:29:40;6.00;;;5.50;;
69943;SDS011;57257;48.408;-4.498;2023-02-05T01:32:06;6.50;;;4.00;;
69943;SDS011;57257;48.408;-4.498;2023-02-05T01:34:31;8.75;;;8.50;;
69943;SDS011;57257;48.408;-4.498;2023-02-05T01:36:57;10.00;;;7.00;;
69943;SDS011;57257;48.408;-4.498;2023-02-05T01:39:22;9.50;;;9.00;;
69943;SDS011;57257;48.408;-4.498;2023-02-05T01:41:47;12.25;;;9.25;;
69943;SDS011;57257;48.408;-4.498;2023-02-05T01:44:17;10.00;;;8.00;;
69943;SDS011;57257;48.408;-4.498;2023-02-05T01:46:48;8.50;;;8.50;;
69943;SDS011;57257;48.408;-4.498;2023-02-05T01:49:20;12.25;;;9.00;;
69943;SDS011;57257;48.408;-4.498;2023-02-05T01:51:49;6.75;;;6.00;;
69943;SDS011;57257;48.408;-4.498;2023-02-05T01:54:16;9.25;;;7.00;;
69943;SDS011;57257;48.408;-4.498;2023-02-05T01:56:45;7.00;;;7.00;;
69943;SDS011;57257;48.408;-4.498;2023-02-05T01:59:34;6.00;;;6.00;;
69943;SDS011;57257;48.408;-4.498;2023-02-05T02:02:02;9.50;;;7.00;;
69943;SDS011;57257;48.408;-4.498;2023-02-05T02:04:44;8.50;;;6.25;;
69943;SDS011;57257;48.408;-4.498;2023-02-05T02:07:16;9.25;;;9.25;;
69943;SDS011;57257;48.408;-4.498;2023-02-05T02:09:45;8.25;;;7.00;;
69943;SDS011;57257;48.408;-4.498;2023-02-05T02:12:13;5.50;;;5.50;;
69943;SDS011;57257;48.408;-4.498;2023-02-05T02:14:43;4.25;;;4.25;;
69943;SDS011;57257;48.408;-4.498;2023-02-05T02:17:13;7.50;;;7.00;;
69943;SDS011;57257;48.408;-4.498;2023-02-05T02:19:43;9.50;;;6.00;;
69943;SDS011;57257;48.408;-4.498;2023-02-05T02:28:11;3.50;;;3.00;;
69943;SDS011;57257;48.408;-4.498;2023-02-05T02:31:00;3.50;;;3.50;;
69943;SDS011;57257;48.408;-4.498;2023-02-05T02:36:28;7.75;;;4.25;;
69943;SDS011;57257;48.408;-4.498;2023-02-05T02:41:44;3.50;;;3.50;;
69943;SDS011;57257;48.408;-4.498;2023-02-05T02:44:15;7.50;;;5.75;;
69943;SDS011;57257;48.408;-4.498;2023-02-05T02:46:50;6.50;;;4.00;;
69943;SDS011;57257;48.408;-4.498;2023-02-05T02:49:21;6.00;;;6.00;;
69943;SDS011;57257;48.408;-4.498;2023-02-05T02:52:09;5.00;;;3.00;;
69943;SDS011;57257;48.408;-4.498;2023-02-05T02:54:38;5.50;;;5.50;;
69943;SDS011;57257;48.408;-4.498;2023-02-05T02:57:07;5.50;;;3.00;;
69943;SDS011;57257;48.408;-4.498;2023-02-05T02:59:35;3.75;;;3.75;;
69943;SDS011;57257;48.408;-4.498;2023-02-05T03:02:04;3.75;;;3.75;;
69943;SDS011;57257;48.408;-4.498;2023-02-05T03:04:33;6.00;;;6.00;;
69943;SDS011;57257;48.408;-4.498;2023-02-05T03:07:12;6.00;;;3.50;;
69943;SDS011;57257;48.408;-4.498;2023-02-05T03:12:17;3.75;;;3.75;;
69943;SDS011;57257;48.408;-4.498;2023-02-05T03:14:43;3.00;;;3.00;;
69943;SDS011;57257;48.408;-4.498;2023-02-05T03:17:08;8.50;;;3.00;;
69943;SDS011;57257;48.408;-4.498;2023-02-05T03:19:34;1.00;;;1.00;;
69943;SDS011;57257;48.408;-4.498;2023-02-05T03:22:01;3.00;;;3.00;;
69943;SDS011;57257;48.408;-4.498;2023-02-05T03:24:29;3.50;;;2.50;;
69943;SDS011;57257;48.408;-4.498;2023-02-05T03:26:56;4.00;;;0.75;;
69943;SDS011;57257;48.408;-4.498;2023-02-05T03:29:26;4.00;;;2.00;;
69943;SDS011;57257;48.408;-4.498;2023-02-05T03:34:52;3.00;;;3.00;;
69943;SDS011;57257;48.408;-4.498;2023-02-05T03:43:30;8.25;;;3.00;;
69943;SDS011;57257;48.408;-4.498;2023-02-05T03:48:38;1.00;;;1.00;;
69943;SDS011;57257;48.408;-4.498;2023-02-05T03:59:16;4.00;;;3.00;;
69943;SDS011;57257;48.408;-4.498;2023-02-05T04:01:44;3.00;;;1.00;;
69943;SDS011;57257;48.408;-4.498;2023-02-05T04:04:10;3.00;;;3.00;;
69943;SDS011;57257;48.408;-4.498;2023-02-05T04:06:36;0.75;;;0.75;;
69943;SDS011;57257;48.408;-4.498;2023-02-05T04:09:02;3.00;;;3.00;;
69943;SDS011;57257;48.408;-4.498;2023-02-05T04:11:28;6.00;;;3.00;;
69943;SDS011;57257;48.408;-4.498;2023-02-05T04:13:53;1.00;;;1.00;;
69943;SDS011;57257;48.408;-4.498;2023-02-05T04:16:19;1.00;;;1.00;;
69943;SDS011;57257;48.408;-4.498;2023-02-05T04:18:44;3.00;;;3.00;;
69943;SDS011;57257;48.408;-4.498;2023-02-05T04:21:10;3.50;;;3.50;;
69943;SDS011;57257;48.408;-4.498;2023-02-05T04:23:35;3.00;;;3.00;;
69943;SDS011;57257;48.408;-4.498;2023-02-05T04:26:00;2.00;;;1.00;;
69943;SDS011;57257;48.408;-4.498;2023-02-05T04:28:26;6.25;;;4.00;;
69943;SDS011;57257;48.408;-4.498;2023-02-05T04:30:52;2.00;;;2.00;;
69943;SDS011;57257;48.408;-4.498;2023-02-05T04:33:17;0.25;;;0.25;;
69943;SDS011;57257;48.408;-4.498;2023-02-05T04:35:43;0.75;;;0.75;;
69943;SDS011;57257;48.408;-4.498;2023-02-05T04:38:08;0.75;;;0.75;;
69943;SDS011;57257;48.408;-4.498;2023-02-05T04:40:33;1.00;;;1.00;;
69943;SDS011;57257;48.408;-4.498;2023-02-05T04:42:59;1.00;;;1.00;;
69943;SDS011;57257;48.408;-4.498;2023-02-05T04:45:24;5.50;;;3.00;;
69943;SDS011;57257;48.408;-4.498;2023-02-05T04:47:54;3.00;;;3.00;;
69943;SDS011;57257;48.408;-4.498;2023-02-05T04:50:21;4.00;;;3.50;;
69943;SDS011;57257;48.408;-4.498;2023-02-05T04:52:46;3.50;;;3.50;;
69943;SDS011;57257;48.408;-4.498;2023-02-05T04:55:11;5.25;;;3.00;;
69943;SDS011;57257;48.408;-4.498;2023-02-05T04:57:37;6.00;;;4.50;;
69943;SDS011;57257;48.408;-4.498;2023-02-05T05:00:02;3.50;;;3.00;;
69943;SDS011;57257;48.408;-4.498;2023-02-05T05:02:28;6.50;;;3.00;;
69943;SDS011;57257;48.408;-4.498;2023-02-05T05:04:54;4.00;;;3.00;;
69943;SDS011;57257;48.408;-4.498;2023-02-05T05:07:19;2.00;;;2.00;;
69943;SDS011;57257;48.408;-4.498;2023-02-05T05:09:45;3.00;;;3.00;;
69943;SDS011;57257;48.408;-4.498;2023-02-05T05:12:10;4.00;;;4.00;;
69943;SDS011;57257;48.408;-4.498;2023-02-05T05:14:36;2.50;;;2.50;;
69943;SDS011;57257;48.408;-4.498;2023-02-05T05:17:01;3.00;;;3.00;;
69943;SDS011;57257;48.408;-4.498;2023-02-05T05:19:27;3.00;;;3.00;;
69943;SDS011;57257;48.408;-4.498;2023-02-05T05:21:52;1.50;;;1.00;;
69943;SDS011;57257;48.408;-4.498;2023-02-05T05:24:18;4.00;;;4.00;;
69943;SDS011;57257;48.408;-4.498;2023-02-05T05:26:43;2.50;;;2.50;;
69943;SDS011;57257;48.408;-4.498;2023-02-05T05:29:12;4.00;;;4.00;;
69943;SDS011;57257;48.408;-4.498;2023-02-05T05:31:38;3.00;;;3.00;;
69943;SDS011;57257;48.408;-4.498;2023-02-05T05:34:04;3.00;;;3.00;;
69943;SDS011;57257;48.408;-4.498;2023-02-05T05:36:29;5.50;;;4.00;;
69943;SDS011;57257;48.408;-4.498;2023-02-05T05:38:55;3.00;;;3.00;;
69943;SDS011;57257;48.408;-4.498;2023-02-05T05:41:40;6.00;;;3.50;;
69943;SDS011;57257;48.408;-4.498;2023-02-05T05:44:24;2.50;;;2.50;;
69943;SDS011;57257;48.408;-4.498;2023-02-05T05:46:49;3.00;;;3.00;;
69943;SDS011;57257;48.408;-4.498;2023-02-05T05:49:15;3.25;;;3.25;;
69943;SDS011;57257;48.408;-4.498;2023-02-05T05:51:40;4.00;;;4.00;;
69943;SDS011;57257;48.408;-4.498;2023-02-05T05:54:05;5.50;;;2.50;;
69943;SDS011;57257;48.408;-4.498;2023-02-05T05:56:31;1.50;;;1.50;;
69943;SDS011;57257;48.408;-4.498;2023-02-05T05:58:56;3.25;;;3.25;;
69943;SDS011;57257;48.408;-4.498;2023-02-05T06:01:22;3.00;;;0.25;;
69943;SDS011;57257;48.408;-4.498;2023-02-05T06:03:47;1.50;;;1.50;;
69943;SDS011;57257;48.408;-4.498;2023-02-05T06:06:13;4.00;;;4.00;;
69943;SDS011;57257;48.408;-4.498;2023-02-05T06:08:39;3.00;;;3.00;;
69943;SDS011;57257;48.408;-4.498;2023-02-05T06:11:04;1.00;;;1.00;;
69943;SDS011;57257;48.408;-4.498;2023-02-05T06:13:30;6.25;;;3.50;;
69943;SDS011;57257;48.408;-4.498;2023-02-05T06:15:56;5.00;;;2.50;;
69943;SDS011;57257;48.408;-4.498;2023-02-05T06:18:22;4.00;;;4.00;;
69943;SDS011;57257;48.408;-4.498;2023-02-05T06:20:47;3.00;;;3.00;;
69943;SDS011;57257;48.408;-4.498;2023-02-05T06:23:13;3.50;;;3.50;;
69943;SDS011;57257;48.408;-4.498;2023-02-05T06:25:38;7.25;;;6.00;;
69943;SDS011;57257;48.408;-4.498;2023-02-05T06:28:04;3.00;;;1.00;;
69943;SDS011;57257;48.408;-4.498;2023-02-05T06:30:30;5.50;;;3.50;;
69943;SDS011;57257;48.408;-4.498;2023-02-05T06:32:55;4.50;;;3.25;;
69943;SDS011;57257;48.408;-4.498;2023-02-05T06:35:20;4.00;;;3.25;;
69943;SDS011;57257;48.408;-4.498;2023-02-05T06:37:46;7.00;;;3.25;;
69943;SDS011;57257;48.408;-4.498;2023-02-05T06:40:11;3.00;;;3.00;;
69943;SDS011;57257;48.408;-4.498;2023-02-05T06:42:39;5.50;;;4.00;;
69943;SDS011;57257;48.408;-4.498;2023-02-05T06:45:05;4.00;;;4.00;;
69943;SDS011;57257;48.408;-4.498;2023-02-05T06:47:31;5.50;;;5.50;;
69943;SDS011;57257;48.408;-4.498;2023-02-05T06:49:56;7.25;;;7.00;;
69943;SDS011;57257;48.408;-4.498;2023-02-05T06:52:21;6.50;;;6.50;;
69943;SDS011;57257;48.408;-4.498;2023-02-05T06:54:47;8.50;;;6.50;;
69943;SDS011;57257;48.408;-4.498;2023-02-05T06:57:12;6.25;;;6.25;;
69943;SDS011;57257;48.408;-4.498;2023-02-05T06:59:38;8.00;;;6.00;;
69943;SDS011;57257;48.408;-4.498;2023-02-05T07:02:03;7.00;;;7.00;;
69943;SDS011;57257;48.408;-4.498;2023-02-05T07:04:29;6.25;;;5.00;;
69943;SDS011;57257;48.408;-4.498;2023-02-05T07:06:55;6.50;;;6.00;;
69943;SDS011;57257;48.408;-4.498;2023-02-05T07:09:21;7.50;;;4.00;;
69943;SDS011;57257;48.408;-4.498;2023-02-05T07:11:47;8.50;;;6.25;;
69943;SDS011;57257;48.408;-4.498;2023-02-05T07:14:12;7.00;;;6.75;;
69943;SDS011;57257;48.408;-4.498;2023-02-05T07:16:38;6.25;;;6.00;;
69943;SDS011;57257;48.408;-4.498;2023-02-05T07:19:03;6.25;;;4.00;;
69943;SDS011;57257;48.408;-4.498;2023-02-05T07:21:28;6.50;;;6.25;;
69943;SDS011;57257;48.408;-4.498;2023-02-05T07:23:54;9.75;;;7.00;;
69943;SDS011;57257;48.408;-4.498;2023-02-05T07:26:19;8.00;;;6.00;;
69943;SDS011;57257;48.408;-4.498;2023-02-05T07:28:45;8.75;;;6.50;;
69943;SDS011;57257;48.408;-4.498;2023-02-05T07:31:11;8.00;;;6.50;;
69943;SDS011;57257;48.408;-4.498;2023-02-05T07:33:39;7.50;;;7.50;;
69943;SDS011;57257;48.408;-4.498;2023-02-05T07:36:06;7.00;;;7.00;;
69943;SDS011;57257;48.408;-4.498;2023-02-05T07:38:34;7.75;;;7.75;;
69943;SDS011;57257;48.408;-4.498;2023-02-05T07:41:04;6.00;;;6.00;;
69943;SDS011;57257;48.408;-4.498;2023-02-05T07:43:29;10.50;;;9.50;;
69943;SDS011;57257;48.408;-4.498;2023-02-05T07:45:59;7.00;;;7.00;;
69943;SDS011;57257;48.408;-4.498;2023-02-05T07:48:26;6.00;;;6.00;;
69943;SDS011;57257;48.408;-4.498;2023-02-05T07:50:52;7.50;;;6.75;;
69943;SDS011;57257;48.408;-4.498;2023-02-05T07:53:18;4.75;;;4.00;;
69943;SDS011;57257;48.408;-4.498;2023-02-05T07:55:44;8.00;;;7.50;;
69943;SDS011;57257;48.408;-4.498;2023-02-05T07:58:09;6.75;;;6.00;;
69943;SDS011;57257;48.408;-4.498;2023-02-05T08:00:35;6.00;;;6.00;;
69943;SDS011;57257;48.408;-4.498;2023-02-05T08:03:00;9.25;;;9.00;;
69943;SDS011;57257;48.408;-4.498;2023-02-05T08:05:26;6.50;;;6.25;;
69943;SDS011;57257;48.408;-4.498;2023-02-05T08:07:52;7.75;;;7.00;;
69943;SDS011;57257;48.408;-4.498;2023-02-05T08:10:17;6.00;;;6.00;;
69943;SDS011;57257;48.408;-4.498;2023-02-05T08:12:42;8.00;;;8.00;;
69943;SDS011;57257;48.408;-4.498;2023-02-05T08:15:08;6.00;;;6.00;;
69943;SDS011;57257;48.408;-4.498;2023-02-05T08:17:34;10.00;;;7.00;;
69943;SDS011;57257;48.408;-4.498;2023-02-05T08:19:59;6.50;;;6.50;;
69943;SDS011;57257;48.408;-4.498;2023-02-05T08:22:31;11.00;;;7.00;;
69943;SDS011;57257;48.408;-4.498;2023-02-05T08:25:01;4.50;;;4.50;;
69943;SDS011;57257;48.408;-4.498;2023-02-05T08:27:27;6.50;;;6.50;;
69943;SDS011;57257;48.408;-4.498;2023-02-05T08:29:52;10.00;;;9.50;;
69943;SDS011;57257;48.408;-4.498;2023-02-05T08:32:18;1.00;;;1.00;;
69943;SDS011;57257;48.408;-4.498;2023-02-05T08:34:43;6.00;;;6.00;;
69943;SDS011;57257;48.408;-4.498;2023-02-05T08:37:09;9.25;;;7.00;;
69943;SDS011;57257;48.408;-4.498;2023-02-05T08:39:35;8.50;;;7.00;;
69943;SDS011;57257;48.408;-4.498;2023-02-05T08:42:01;3.25;;;3.25;;
69943;SDS011;57257;48.408;-4.498;2023-02-05T08:44:27;7.00;;;7.00;;
69943;SDS011;57257;48.408;-4.498;2023-02-05T08:46:52;6.75;;;6.75;;
69943;SDS011;57257;48.408;-4.498;2023-02-05T08:49:18;9.25;;;9.00;;
69943;SDS011;57257;48.408;-4.498;2023-02-05T08:51:43;6.25;;;6.25;;
69943;SDS011;57257;48.408;-4.498;2023-02-05T08:54:09;10.75;;;6.75;;
69943;SDS011;57257;48.408;-4.498;2023-02-05T08:56:37;6.75;;;6.25;;
69943;SDS011;57257;48.408;-4.498;2023-02-05T08:59:04;3.75;;;3.00;;
69943;SDS011;57257;48.408;-4.498;2023-02-05T09:01:29;4.00;;;3.00;;
69943;SDS011;57257;48.408;-4.498;2023-02-05T09:03:55;10.50;;;6.50;;
69943;SDS011;57257;48.408;-4.498;2023-02-05T09:06:20;11.00;;;8.50;;
69943;SDS011;57257;48.408;-4.498;2023-02-05T09:08:46;7.00;;;7.00;;
69943;SDS011;57257;48.408;-4.498;2023-02-05T09:11:11;9.25;;;9.25;;
69943;SDS011;57257;48.408;-4.498;2023-02-05T09:13:37;9.50;;;9.50;;
69943;SDS011;57257;48.408;-4.498;2023-02-05T09:16:03;8.00;;;8.00;;
69943;SDS011;57257;48.408;-4.498;2023-02-05T09:18:28;15.50;;;9.75;;
69943;SDS011;57257;48.408;-4.498;2023-02-05T09:20:54;12.25;;;7.50;;
69943;SDS011;57257;48.408;-4.498;2023-02-05T09:23:20;12.25;;;8.00;;
69943;SDS011;57257;48.408;-4.498;2023-02-05T09:25:46;11.50;;;6.50;;
69943;SDS011;57257;48.408;-4.498;2023-02-05T09:28:12;5.50;;;4.00;;
69943;SDS011;57257;48.408;-4.498;2023-02-05T09:30:39;6.50;;;6.50;;
69943;SDS011;57257;48.408;-4.498;2023-02-05T09:33:07;6.25;;;6.00;;
69943;SDS011;57257;48.408;-4.498;2023-02-05T09:35:33;7.00;;;7.00;;
69943;SDS011;57257;48.408;-4.498;2023-02-05T09:37:59;6.00;;;6.00;;
69943;SDS011;57257;48.408;-4.498;2023-02-05T09:40:28;6.00;;;3.00;;
69943;SDS011;57257;48.408;-4.498;2023-02-05T09:43:34;6.25;;;6.25;;
69943;SDS011;57257;48.408;-4.498;2023-02-05T09:46:06;13.75;;;11.50;;
69943;SDS011;57257;48.408;-4.498;2023-02-05T09:51:11;9.00;;;6.00;;
69943;SDS011;57257;48.408;-4.498;2023-02-05T09:53:41;14.00;;;13.00;;
69943;SDS011;57257;48.408;-4.498;2023-02-05T09:56:11;12.25;;;10.25;;
69943;SDS011;57257;48.408;-4.498;2023-02-05T09:58:42;12.75;;;9.75;;
69943;SDS011;57257;48.408;-4.498;2023-02-05T10:01:17;10.75;;;9.25;;
69943;SDS011;57257;48.408;-4.498;2023-02-05T10:03:48;13.50;;;12.50;;
69943;SDS011;57257;48.408;-4.498;2023-02-05T10:09:34;10.25;;;8.00;;
69943;SDS011;57257;48.408;-4.498;2023-02-05T10:20:18;12.00;;;12.00;;
69943;SDS011;57257;48.408;-4.498;2023-02-05T10:25:50;9.50;;;9.50;;
69943;SDS011;57257;48.408;-4.498;2023-02-05T10:34:42;9.50;;;9.50;;
69943;SDS011;57257;48.408;-4.498;2023-02-05T10:37:15;9.00;;;9.00;;
69943;SDS011;57257;48.408;-4.498;2023-02-05T10:39:43;9.50;;;7.00;;
69943;SDS011;57257;48.408;-4.498;2023-02-05T10:45:05;6.50;;;4.00;;
69943;SDS011;57257;48.408;-4.498;2023-02-05T10:52:50;12.50;;;8.75;;
69943;SDS011;57257;48.408;-4.498;2023-02-05T10:55:16;9.00;;;9.00;;
69943;SDS011;57257;48.408;-4.498;2023-02-05T10:57:41;13.50;;;13.50;;
69943;SDS011;57257;48.408;-4.498;2023-02-05T11:00:20;6.00;;;6.00;;
69943;SDS011;57257;48.408;-4.498;2023-02-05T11:02:50;6.25;;;6.25;;
69943;SDS011;57257;48.408;-4.498;2023-02-05T11:05:20;6.25;;;3.00;;
69943;SDS011;57257;48.408;-4.498;2023-02-05T11:08:00;8.75;;;8.75;;
69943;SDS011;57257;48.408;-4.498;2023-02-05T11:10:27;6.75;;;6.75;;
69943;SDS011;57257;48.408;-4.498;2023-02-05T11:12:59;4.00;;;4.00;;
69943;SDS011;57257;48.408;-4.498;2023-02-05T11:15:30;6.50;;;5.00;;
69943;SDS011;57257;48.408;-4.498;2023-02-05T11:18:03;3.00;;;3.00;;
69943;SDS011;57257;48.408;-4.498;2023-02-05T11:20:37;6.00;;;4.50;;
69943;SDS011;57257;48.408;-4.498;2023-02-05T11:23:17;3.50;;;3.50;;
69943;SDS011;57257;48.408;-4.498;2023-02-05T11:25:54;5.50;;;5.50;;
69943;SDS011;57257;48.408;-4.498;2023-02-05T11:28:26;4.00;;;3.00;;
69943;SDS011;57257;48.408;-4.498;2023-02-05T11:30:56;1.00;;;1.00;;
69943;SDS011;57257;48.408;-4.498;2023-02-05T11:35:50;6.25;;;3.00;;
69943;SDS011;57257;48.408;-4.498;2023-02-05T11:40:56;6.00;;;3.75;;
69943;SDS011;57257;48.408;-4.498;2023-02-05T11:43:29;4.00;;;4.00;;
69943;SDS011;57257;48.408;-4.498;2023-02-05T11:45:57;4.75;;;3.00;;
69943;SDS011;57257;48.408;-4.498;2023-02-05T11:48:27;4.00;;;1.00;;
69943;SDS011;57257;48.408;-4.498;2023-02-05T11:50:55;3.50;;;2.50;;
69943;SDS011;57257;48.408;-4.498;2023-02-05T11:53:21;0.75;;;0.75;;
69943;SDS011;57257;48.408;-4.498;2023-02-05T11:55:54;3.00;;;1.00;;
69943;SDS011;57257;48.408;-4.498;2023-02-05T11:58:24;2.50;;;2.50;;
69943;SDS011;57257;48.408;-4.498;2023-02-05T12:00:52;4.00;;;3.00;;
69943;SDS011;57257;48.408;-4.498;2023-02-05T12:03:24;3.50;;;1.00;;
69943;SDS011;57257;48.408;-4.498;2023-02-05T12:08:44;1.00;;;1.00;;
69943;SDS011;57257;48.408;-4.498;2023-02-05T12:19:17;1.00;;;1.00;;
69943;SDS011;57257;48.408;-4.498;2023-02-05T12:21:50;2.00;;;2.00;;
69943;SDS011;57257;48.408;-4.498;2023-02-05T12:27:07;2.00;;;1.00;;
69943;SDS011;57257;48.408;-4.498;2023-02-05T12:29:44;3.00;;;1.00;;
69943;SDS011;57257;48.408;-4.498;2023-02-05T12:41:00;0.00;;;0.00;;
69943;SDS011;57257;48.408;-4.498;2023-02-05T12:43:13;0.50;;;0.50;;
69943;SDS011;57257;48.408;-4.498;2023-02-05T12:46:19;1.00;;;1.00;;
69943;SDS011;57257;48.408;-4.498;2023-02-05T12:55:06;0.00;;;0.00;;
69943;SDS011;57257;48.408;-4.498;2023-02-05T12:57:38;0.00;;;0.00;;
69943;SDS011;57257;48.408;-4.498;2023-02-05T13:00:22;0.00;;;0.00;;
69943;SDS011;57257;48.408;-4.498;2023-02-05T13:05:49;3.00;;;0.50;;
69943;SDS011;57257;48.408;-4.498;2023-02-05T13:11:02;0.75;;;0.00;;
69943;SDS011;57257;48.408;-4.498;2023-02-05T13:13:34;0.50;;;0.50;;
69943;SDS011;57257;48.408;-4.498;2023-02-05T13:16:08;0.75;;;0.00;;
69943;SDS011;57257;48.408;-4.498;2023-02-05T13:18:40;4.75;;;1.00;;
69943;SDS011;57257;48.408;-4.498;2023-02-05T13:21:17;3.00;;;0.00;;
69943;SDS011;57257;48.408;-4.498;2023-02-05T13:27:28;1.00;;;0.25;;
69943;SDS011;57257;48.408;-4.498;2023-02-05T13:31:02;1.00;;;1.00;;
69943;SDS011;57257;48.408;-4.498;2023-02-05T13:33:07;0.00;;;0.00;;
69943;SDS011;57257;48.408;-4.498;2023-02-05T13:35:45;0.00;;;0.00;;
69943;SDS011;57257;48.408;-4.498;2023-02-05T13:58:23;0.00;;;0.00;;
69943;SDS011;57257;48.408;-4.498;2023-02-05T14:03:37;4.25;;;0.00;;
69943;SDS011;57257;48.408;-4.498;2023-02-05T14:06:27;0.00;;;0.00;;
69943;SDS011;57257;48.408;-4.498;2023-02-05T14:14:22;0.00;;;0.00;;
69943;SDS011;57257;48.408;-4.498;2023-02-05T14:16:48;1.00;;;1.00;;
69943;SDS011;57257;48.408;-4.498;2023-02-05T14:19:17;1.50;;;1.50;;
69943;SDS011;57257;48.408;-4.498;2023-02-05T14:21:54;3.00;;;1.00;;
69943;SDS011;57257;48.408;-4.498;2023-02-05T14:30:52;3.00;;;3.00;;
69943;SDS011;57257;48.408;-4.498;2023-02-05T14:38:14;2.00;;;2.00;;
69943;SDS011;57257;48.408;-4.498;2023-02-05T14:40:58;3.25;;;3.25;;
69943;SDS011;57257;48.408;-4.498;2023-02-05T14:43:45;4.00;;;2.75;;
69943;SDS011;57257;48.408;-4.498;2023-02-05T14:48:55;4.00;;;4.00;;
69943;SDS011;57257;48.408;-4.498;2023-02-05T14:51:35;4.50;;;4.00;;
69943;SDS011;57257;48.408;-4.498;2023-02-05T14:54:06;2.00;;;2.00;;
69943;SDS011;57257;48.408;-4.498;2023-02-05T14:56:40;4.00;;;4.00;;
69943;SDS011;57257;48.408;-4.498;2023-02-05T14:59:20;3.00;;;3.00;;
69943;SDS011;57257;48.408;-4.498;2023-02-05T15:01:47;1.00;;;1.00;;
69943;SDS011;57257;48.408;-4.498;2023-02-05T15:07:40;4.50;;;2.75;;
69943;SDS011;57257;48.408;-4.498;2023-02-05T15:10:00;3.25;;;2.25;;
69943;SDS011;57257;48.408;-4.498;2023-02-05T15:15:24;1.00;;;1.00;;
69943;SDS011;57257;48.408;-4.498;2023-02-05T15:17:58;3.00;;;3.00;;
69943;SDS011;57257;48.408;-4.498;2023-02-05T15:20:34;1.00;;;1.00;;
69943;SDS011;57257;48.408;-4.498;2023-02-05T15:25:36;0.75;;;0.75;;
69943;SDS011;57257;48.408;-4.498;2023-02-05T15:28:16;1.00;;;0.00;;
69943;SDS011;57257;48.408;-4.498;2023-02-05T15:30:46;4.00;;;1.00;;
69943;SDS011;57257;48.408;-4.498;2023-02-05T15:33:27;1.00;;;1.00;;
69943;SDS011;57257;48.408;-4.498;2023-02-05T15:35:58;0.75;;;0.75;;
69943;SDS011;57257;48.408;-4.498;2023-02-05T15:38:28;2.50;;;0.75;;
69943;SDS011;57257;48.408;-4.498;2023-02-05T15:40:59;0.75;;;0.00;;
69943;SDS011;57257;48.408;-4.498;2023-02-05T15:43:30;3.00;;;3.00;;
69943;SDS011;57257;48.408;-4.498;2023-02-05T15:45:58;3.75;;;3.75;;
69943;SDS011;57257;48.408;-4.498;2023-02-05T15:48:28;3.00;;;3.00;;
69943;SDS011;57257;48.408;-4.498;2023-02-05T15:50:58;0.00;;;0.00;;
69943;SDS011;57257;48.408;-4.498;2023-02-05T15:55:57;1.00;;;1.00;;
69943;SDS011;57257;48.408;-4.498;2023-02-05T15:58:24;0.00;;;0.00;;
69943;SDS011;57257;48.408;-4.498;2023-02-05T16:00:51;1.00;;;1.00;;
69943;SDS011;57257;48.408;-4.498;2023-02-05T16:03:25;1.00;;;1.00;;
69943;SDS011;57257;48.408;-4.498;2023-02-05T16:05:55;1.75;;;0.25;;
69943;SDS011;57257;48.408;-4.498;2023-02-05T16:08:21;0.00;;;0.00;;
69943;SDS011;57257;48.408;-4.498;2023-02-05T16:10:51;0.75;;;0.00;;
69943;SDS011;57257;48.408;-4.498;2023-02-05T16:13:26;1.00;;;0.00;;
69943;SDS011;57257;48.408;-4.498;2023-02-05T16:16:02;1.00;;;1.00;;
69943;SDS011;57257;48.408;-4.498;2023-02-05T16:24:02;4.00;;;3.00;;
69943;SDS011;57257;48.408;-4.498;2023-02-05T16:26:36;1.00;;;1.00;;
69943;SDS011;57257;48.408;-4.498;2023-02-05T16:29:07;1.00;;;1.00;;
69943;SDS011;57257;48.408;-4.498;2023-02-05T16:31:44;0.50;;;0.50;;
69943;SDS011;57257;48.408;-4.498;2023-02-05T16:34:16;1.00;;;1.00;;
69943;SDS011;57257;48.408;-4.498;2023-02-05T16:36:46;0.50;;;0.25;;
69943;SDS011;57257;48.408;-4.498;2023-02-05T16:41:42;1.00;;;1.00;;
69943;SDS011;57257;48.408;-4.498;2023-02-05T16:44:25;0.75;;;0.75;;
69943;SDS011;57257;48.408;-4.498;2023-02-05T16:47:04;3.50;;;1.00;;
69943;SDS011;57257;48.408;-4.498;2023-02-05T16:49:37;3.00;;;3.00;;
69943;SDS011;57257;48.408;-4.498;2023-02-05T16:52:03;1.00;;;1.00;;
69943;SDS011;57257;48.408;-4.498;2023-02-05T16:54:47;5.00;;;3.25;;
69943;SDS011;57257;48.408;-4.498;2023-02-05T16:57:13;3.75;;;2.00;;
69943;SDS011;57257;48.408;-4.498;2023-02-05T17:04:57;4.50;;;4.00;;
69943;SDS011;57257;48.408;-4.498;2023-02-05T17:07:25;3.00;;;1.50;;
69943;SDS011;57257;48.408;-4.498;2023-02-05T17:09:51;4.00;;;3.50;;
69943;SDS011;57257;48.408;-4.498;2023-02-05T17:15:02;6.25;;;5.00;;
69943;SDS011;57257;48.408;-4.498;2023-02-05T17:17:50;3.00;;;3.00;;
69943;SDS011;57257;48.408;-4.498;2023-02-05T17:25:27;4.50;;;3.00;;
69943;SDS011;57257;48.408;-4.498;2023-02-05T17:28:05;6.00;;;4.00;;
69943;SDS011;57257;48.408;-4.498;2023-02-05T17:30:32;3.00;;;3.00;;
69943;SDS011;57257;48.408;-4.498;2023-02-05T17:32:58;6.50;;;3.00;;
69943;SDS011;57257;48.408;-4.498;2023-02-05T17:35:24;6.50;;;6.00;;
69943;SDS011;57257;48.408;-4.498;2023-02-05T17:37:50;3.00;;;3.00;;
69943;SDS011;57257;48.408;-4.498;2023-02-05T17:40:16;2.00;;;1.00;;
69943;SDS011;57257;48.408;-4.498;2023-02-05T17:42:43;3.00;;;1.00;;
69943;SDS011;57257;48.408;-4.498;2023-02-05T17:45:13;6.50;;;6.50;;
69943;SDS011;57257;48.408;-4.498;2023-02-05T17:47:50;4.00;;;4.00;;